sensor_id;sensor_type;location;lat;lon;timestamp;temperature;humidity
44487;DHT22;30191;50.908;6.962;2023-04-06T00:01:25;7.90;99.90
44487;DHT22;30191;50.908;6.962;2023-04-06T00:03:51;7.80;99.90
44487;DHT22;30191;50.908;6.962;2023-04-06T00:06:16;7.80;99.90
44487;DHT22;30191;50.908;6.962;2023-04-06T00:08:42;7.80;99.90
44487;DHT22;30191;50.908;6.962;2023-04-06T00:11:08;7.80;99.90
44487;DHT22;30191;50.908;6.962;2023-04-06T00:13:34;7.70;99.90
44487;DHT22;30191;50.908;6.962;2023-04-06T00:16:00;7.80;99.90
44487;DHT22;30191;50.908;6.962;2023-04-06T00:18:25;7.70;99.90
44487;DHT22;30191;50.908;6.962;2023-04-06T00:20:51;7.70;99.90
44487;DHT22;30191;50.908;6.962;2023-04-06T00:23:17;7.70;99.90
44487;DHT22;30191;50.908;6.962;2023-04-06T00:25:43;7.70;99.90
44487;DHT22;30191;50.908;6.962;2023-04-06T00:28:08;7.70;99.90
44487;DHT22;30191;50.908;6.962;2023-04-06T00:30:34;7.70;99.90
44487;DHT22;30191;50.908;6.962;2023-04-06T00:33:00;7.70;99.90
44487;DHT22;30191;50.908;6.962;2023-04-06T00:35:25;7.70;99.90
44487;DHT22;30191;50.908;6.962;2023-04-06T00:37:51;7.60;99.90
44487;DHT22;30191;50.908;6.962;2023-04-06T00:40:17;7.70;99.90
44487;DHT22;30191;50.908;6.962;2023-04-06T00:42:42;7.60;99.90
44487;DHT22;30191;50.908;6.962;2023-04-06T00:45:09;7.60;99.90
44487;DHT22;30191;50.908;6.962;2023-04-06T00:47:35;7.50;99.90
44487;DHT22;30191;50.908;6.962;2023-04-06T00:50:00;7.50;99.90
44487;DHT22;30191;50.908;6.962;2023-04-06T00:52:26;7.60;99.90
44487;DHT22;30191;50.908;6.962;2023-04-06T00:54:51;7.50;99.90
44487;DHT22;30191;50.908;6.962;2023-04-06T00:57:17;7.50;99.90
44487;DHT22;30191;50.908;6.962;2023-04-06T00:59:43;7.50;99.90
44487;DHT22;30191;50.908;6.962;2023-04-06T01:02:09;7.40;99.90
44487;DHT22;30191;50.908;6.962;2023-04-06T01:04:34;7.40;99.90
44487;DHT22;30191;50.908;6.962;2023-04-06T01:07:00;7.40;99.90
44487;DHT22;30191;50.908;6.962;2023-04-06T01:09:29;7.40;99.90
44487;DHT22;30191;50.908;6.962;2023-04-06T01:11:58;7.40;99.90
44487;DHT22;30191;50.908;6.962;2023-04-06T01:14:24;7.40;99.90
44487;DHT22;30191;50.908;6.962;2023-04-06T01:16:50;7.30;99.90
44487;DHT22;30191;50.908;6.962;2023-04-06T01:19:15;7.30;99.90
44487;DHT22;30191;50.908;6.962;2023-04-06T01:21:41;7.30;99.90
44487;DHT22;30191;50.908;6.962;2023-04-06T01:24:07;7.30;99.90
44487;DHT22;30191;50.908;6.962;2023-04-06T01:26:33;7.30;99.90
44487;DHT22;30191;50.908;6.962;2023-04-06T01:28:59;7.30;99.90
44487;DHT22;30191;50.908;6.962;2023-04-06T01:31:25;7.20;99.90
44487;DHT22;30191;50.908;6.962;2023-04-06T01:33:51;7.20;99.90
44487;DHT22;30191;50.908;6.962;2023-04-06T01:36:17;7.20;99.90
44487;DHT22;30191;50.908;6.962;2023-04-06T01:38:43;7.30;99.90
44487;DHT22;30191;50.908;6.962;2023-04-06T01:41:08;7.20;99.90
44487;DHT22;30191;50.908;6.962;2023-04-06T01:43:34;7.20;99.90
44487;DHT22;30191;50.908;6.962;2023-04-06T01:45:59;7.20;99.90
44487;DHT22;30191;50.908;6.962;2023-04-06T01:48:28;7.10;99.90
44487;DHT22;30191;50.908;6.962;2023-04-06T01:50:54;7.10;99.90
44487;DHT22;30191;50.908;6.962;2023-04-06T01:53:20;7.00;99.90
44487;DHT22;30191;50.908;6.962;2023-04-06T01:55:46;7.00;99.90
44487;DHT22;30191;50.908;6.962;2023-04-06T01:58:12;7.00;99.90
44487;DHT22;30191;50.908;6.962;2023-04-06T02:00:38;7.00;99.90
44487;DHT22;30191;50.908;6.962;2023-04-06T02:03:03;7.00;99.90
44487;DHT22;30191;50.908;6.962;2023-04-06T02:05:30;7.00;99.90
44487;DHT22;30191;50.908;6.962;2023-04-06T02:07:55;7.00;99.90
44487;DHT22;30191;50.908;6.962;2023-04-06T02:10:21;6.90;99.90
44487;DHT22;30191;50.908;6.962;2023-04-06T02:12:47;6.90;99.90
44487;DHT22;30191;50.908;6.962;2023-04-06T02:15:13;6.90;99.90
44487;DHT22;30191;50.908;6.962;2023-04-06T02:17:40;6.90;99.90
44487;DHT22;30191;50.908;6.962;2023-04-06T02:20:05;6.90;99.90
44487;DHT22;30191;50.908;6.962;2023-04-06T02:22:31;6.80;99.90
44487;DHT22;30191;50.908;6.962;2023-04-06T02:24:57;6.90;99.90
44487;DHT22;30191;50.908;6.962;2023-04-06T02:27:22;6.90;99.90
44487;DHT22;30191;50.908;6.962;2023-04-06T02:29:48;6.80;99.90
44487;DHT22;30191;50.908;6.962;2023-04-06T02:32:13;6.80;99.90
44487;DHT22;30191;50.908;6.962;2023-04-06T02:34:39;6.80;99.90
44487;DHT22;30191;50.908;6.962;2023-04-06T02:37:05;6.90;99.90
44487;DHT22;30191;50.908;6.962;2023-04-06T02:39:30;6.80;99.90
44487;DHT22;30191;50.908;6.962;2023-04-06T02:41:56;6.80;99.90
44487;DHT22;30191;50.908;6.962;2023-04-06T02:44:22;6.70;99.90
44487;DHT22;30191;50.908;6.962;2023-04-06T02:46:48;6.80;99.90
44487;DHT22;30191;50.908;6.962;2023-04-06T02:49:13;6.70;99.90
44487;DHT22;30191;50.908;6.962;2023-04-06T02:51:39;6.60;99.90
44487;DHT22;30191;50.908;6.962;2023-04-06T02:54:04;6.60;99.90
44487;DHT22;30191;50.908;6.962;2023-04-06T02:56:30;6.50;99.90
44487;DHT22;30191;50.908;6.962;2023-04-06T02:58:55;6.50;99.90
44487;DHT22;30191;50.908;6.962;2023-04-06T03:01:21;6.40;99.90
44487;DHT22;30191;50.908;6.962;2023-04-06T03:03:46;6.40;99.90
44487;DHT22;30191;50.908;6.962;2023-04-06T03:06:12;6.40;99.90
44487;DHT22;30191;50.908;6.962;2023-04-06T03:08:37;6.30;99.90
44487;DHT22;30191;50.908;6.962;2023-04-06T03:11:03;6.30;99.90
44487;DHT22;30191;50.908;6.962;2023-04-06T03:13:28;6.30;99.90
44487;DHT22;30191;50.908;6.962;2023-04-06T03:15:54;6.30;99.90
44487;DHT22;30191;50.908;6.962;2023-04-06T03:18:23;6.30;99.90
44487;DHT22;30191;50.908;6.962;2023-04-06T03:20:49;6.30;99.90
44487;DHT22;30191;50.908;6.962;2023-04-06T03:23:15;6.30;99.90
44487;DHT22;30191;50.908;6.962;2023-04-06T03:25:41;6.30;99.90
44487;DHT22;30191;50.908;6.962;2023-04-06T03:28:07;6.30;99.90
44487;DHT22;30191;50.908;6.962;2023-04-06T03:30:32;6.30;99.90
44487;DHT22;30191;50.908;6.962;2023-04-06T03:32:58;6.40;99.90
44487;DHT22;30191;50.908;6.962;2023-04-06T03:35:23;6.40;99.90
44487;DHT22;30191;50.908;6.962;2023-04-06T03:37:49;6.40;99.90
44487;DHT22;30191;50.908;6.962;2023-04-06T03:40:15;6.30;99.90
44487;DHT22;30191;50.908;6.962;2023-04-06T03:42:41;6.30;99.90
44487;DHT22;30191;50.908;6.962;2023-04-06T03:45:06;6.20;99.90
44487;DHT22;30191;50.908;6.962;2023-04-06T03:47:32;6.10;99.90
44487;DHT22;30191;50.908;6.962;2023-04-06T03:49:58;6.00;99.90
44487;DHT22;30191;50.908;6.962;2023-04-06T03:52:23;6.00;99.90
44487;DHT22;30191;50.908;6.962;2023-04-06T03:54:49;5.90;99.90
44487;DHT22;30191;50.908;6.962;2023-04-06T03:57:14;5.90;99.90
44487;DHT22;30191;50.908;6.962;2023-04-06T03:59:40;6.00;99.90
44487;DHT22;30191;50.908;6.962;2023-04-06T04:02:06;6.10;99.90
44487;DHT22;30191;50.908;6.962;2023-04-06T04:04:31;6.00;99.90
44487;DHT22;30191;50.908;6.962;2023-04-06T04:06:57;6.10;99.90
44487;DHT22;30191;50.908;6.962;2023-04-06T04:09:22;6.20;99.90
44487;DHT22;30191;50.908;6.962;2023-04-06T04:11:48;6.10;99.90
44487;DHT22;30191;50.908;6.962;2023-04-06T04:14:13;6.10;99.90
44487;DHT22;30191;50.908;6.962;2023-04-06T04:16:39;6.10;99.90
44487;DHT22;30191;50.908;6.962;2023-04-06T04:19:06;6.10;99.90
44487;DHT22;30191;50.908;6.962;2023-04-06T04:21:32;6.10;99.90
44487;DHT22;30191;50.908;6.962;2023-04-06T04:23:57;6.10;99.90
44487;DHT22;30191;50.908;6.962;2023-04-06T04:26:23;6.00;99.90
44487;DHT22;30191;50.908;6.962;2023-04-06T04:28:48;5.90;99.90
44487;DHT22;30191;50.908;6.962;2023-04-06T04:31:14;5.80;99.90
44487;DHT22;30191;50.908;6.962;2023-04-06T04:33:39;5.90;99.90
44487;DHT22;30191;50.908;6.962;2023-04-06T04:36:05;5.90;99.90
44487;DHT22;30191;50.908;6.962;2023-04-06T04:38:31;5.90;99.90
44487;DHT22;30191;50.908;6.962;2023-04-06T04:40:56;5.90;99.90
44487;DHT22;30191;50.908;6.962;2023-04-06T04:43:22;5.90;99.90
44487;DHT22;30191;50.908;6.962;2023-04-06T04:45:47;5.90;99.90
44487;DHT22;30191;50.908;6.962;2023-04-06T04:48:13;5.80;99.90
44487;DHT22;30191;50.908;6.962;2023-04-06T04:50:38;5.70;99.90
44487;DHT22;30191;50.908;6.962;2023-04-06T04:53:04;5.80;99.90
44487;DHT22;30191;50.908;6.962;2023-04-06T04:55:32;5.70;99.90
44487;DHT22;30191;50.908;6.962;2023-04-06T04:57:58;5.70;99.90
44487;DHT22;30191;50.908;6.962;2023-04-06T05:00:24;5.70;99.90
44487;DHT22;30191;50.908;6.962;2023-04-06T05:02:49;5.70;99.90
44487;DHT22;30191;50.908;6.962;2023-04-06T05:05:15;5.70;99.90
44487;DHT22;30191;50.908;6.962;2023-04-06T05:07:40;5.70;99.90
44487;DHT22;30191;50.908;6.962;2023-04-06T05:10:08;5.70;99.90
44487;DHT22;30191;50.908;6.962;2023-04-06T05:12:34;5.70;99.90
44487;DHT22;30191;50.908;6.962;2023-04-06T05:14:59;5.70;99.90
44487;DHT22;30191;50.908;6.962;2023-04-06T05:17:25;5.70;99.90
44487;DHT22;30191;50.908;6.962;2023-04-06T05:19:51;5.70;99.90
44487;DHT22;30191;50.908;6.962;2023-04-06T05:22:16;5.70;99.90
44487;DHT22;30191;50.908;6.962;2023-04-06T05:24:43;5.70;99.90
44487;DHT22;30191;50.908;6.962;2023-04-06T05:27:08;5.70;99.90
44487;DHT22;30191;50.908;6.962;2023-04-06T05:29:34;5.70;99.90
44487;DHT22;30191;50.908;6.962;2023-04-06T05:32:00;5.70;99.90
44487;DHT22;30191;50.908;6.962;2023-04-06T05:34:26;5.70;99.90
44487;DHT22;30191;50.908;6.962;2023-04-06T05:36:51;5.70;99.90
44487;DHT22;30191;50.908;6.962;2023-04-06T05:39:17;5.70;99.90
44487;DHT22;30191;50.908;6.962;2023-04-06T05:41:42;5.70;99.90
44487;DHT22;30191;50.908;6.962;2023-04-06T05:44:08;5.70;99.90
44487;DHT22;30191;50.908;6.962;2023-04-06T05:46:33;5.70;99.90
44487;DHT22;30191;50.908;6.962;2023-04-06T05:48:59;5.80;99.90
44487;DHT22;30191;50.908;6.962;2023-04-06T05:51:25;5.80;99.90
44487;DHT22;30191;50.908;6.962;2023-04-06T05:53:52;5.80;99.90
44487;DHT22;30191;50.908;6.962;2023-04-06T05:56:17;5.90;99.90
44487;DHT22;30191;50.908;6.962;2023-04-06T05:58:43;5.90;99.90
44487;DHT22;30191;50.908;6.962;2023-04-06T06:01:08;5.90;99.90
44487;DHT22;30191;50.908;6.962;2023-04-06T06:03:35;5.90;99.90
44487;DHT22;30191;50.908;6.962;2023-04-06T06:06:01;5.90;99.90
44487;DHT22;30191;50.908;6.962;2023-04-06T06:08:27;6.00;99.90
44487;DHT22;30191;50.908;6.962;2023-04-06T06:10:52;6.00;99.90
44487;DHT22;30191;50.908;6.962;2023-04-06T06:13:18;6.00;99.90
44487;DHT22;30191;50.908;6.962;2023-04-06T06:15:44;6.00;99.90
44487;DHT22;30191;50.908;6.962;2023-04-06T06:18:09;6.10;99.90
44487;DHT22;30191;50.908;6.962;2023-04-06T06:20:35;6.10;99.90
44487;DHT22;30191;50.908;6.962;2023-04-06T06:23:01;6.10;99.90
44487;DHT22;30191;50.908;6.962;2023-04-06T06:25:26;6.20;99.90
44487;DHT22;30191;50.908;6.962;2023-04-06T06:27:52;6.20;99.90
44487;DHT22;30191;50.908;6.962;2023-04-06T06:30:17;6.20;99.90
44487;DHT22;30191;50.908;6.962;2023-04-06T06:32:43;6.20;99.90
44487;DHT22;30191;50.908;6.962;2023-04-06T06:35:09;6.30;99.90
44487;DHT22;30191;50.908;6.962;2023-04-06T06:37:34;6.40;99.90
44487;DHT22;30191;50.908;6.962;2023-04-06T06:40:00;6.40;99.90
44487;DHT22;30191;50.908;6.962;2023-04-06T06:42:25;6.40;99.90
44487;DHT22;30191;50.908;6.962;2023-04-06T06:44:51;6.40;99.90
44487;DHT22;30191;50.908;6.962;2023-04-06T06:47:17;6.50;99.90
44487;DHT22;30191;50.908;6.962;2023-04-06T06:49:42;6.60;99.90
44487;DHT22;30191;50.908;6.962;2023-04-06T06:52:08;6.60;99.90
44487;DHT22;30191;50.908;6.962;2023-04-06T06:54:33;6.70;99.90
44487;DHT22;30191;50.908;6.962;2023-04-06T06:56:59;6.70;99.90
44487;DHT22;30191;50.908;6.962;2023-04-06T06:59:25;6.80;99.90
44487;DHT22;30191;50.908;6.962;2023-04-06T07:01:51;6.80;99.90
44487;DHT22;30191;50.908;6.962;2023-04-06T07:04:16;6.90;99.90
44487;DHT22;30191;50.908;6.962;2023-04-06T07:06:42;7.00;99.90
44487;DHT22;30191;50.908;6.962;2023-04-06T07:09:07;7.00;99.90
44487;DHT22;30191;50.908;6.962;2023-04-06T07:11:33;7.00;99.90
44487;DHT22;30191;50.908;6.962;2023-04-06T07:13:59;7.10;99.90
44487;DHT22;30191;50.908;6.962;2023-04-06T07:16:24;7.20;99.90
44487;DHT22;30191;50.908;6.962;2023-04-06T07:18:50;7.30;99.90
44487;DHT22;30191;50.908;6.962;2023-04-06T07:21:16;7.30;99.90
44487;DHT22;30191;50.908;6.962;2023-04-06T07:23:41;7.40;99.90
44487;DHT22;30191;50.908;6.962;2023-04-06T07:26:07;7.50;99.90
44487;DHT22;30191;50.908;6.962;2023-04-06T07:28:33;7.50;99.90
44487;DHT22;30191;50.908;6.962;2023-04-06T07:30:58;7.50;99.90
44487;DHT22;30191;50.908;6.962;2023-04-06T07:33:24;7.60;99.90
44487;DHT22;30191;50.908;6.962;2023-04-06T07:35:52;7.80;99.90
44487;DHT22;30191;50.908;6.962;2023-04-06T07:38:18;7.80;99.90
44487;DHT22;30191;50.908;6.962;2023-04-06T07:40:43;7.90;99.90
44487;DHT22;30191;50.908;6.962;2023-04-06T07:43:09;8.10;99.90
44487;DHT22;30191;50.908;6.962;2023-04-06T07:45:35;8.20;99.90
44487;DHT22;30191;50.908;6.962;2023-04-06T07:48:00;8.20;99.90
44487;DHT22;30191;50.908;6.962;2023-04-06T07:50:26;8.30;99.90
44487;DHT22;30191;50.908;6.962;2023-04-06T07:52:51;8.40;99.90
44487;DHT22;30191;50.908;6.962;2023-04-06T07:55:17;8.40;99.90
44487;DHT22;30191;50.908;6.962;2023-04-06T07:57:43;8.40;99.90
44487;DHT22;30191;50.908;6.962;2023-04-06T08:00:08;8.50;99.90
44487;DHT22;30191;50.908;6.962;2023-04-06T08:02:34;8.60;99.90
44487;DHT22;30191;50.908;6.962;2023-04-06T08:05:00;8.50;99.90
44487;DHT22;30191;50.908;6.962;2023-04-06T08:07:26;8.60;99.90
44487;DHT22;30191;50.908;6.962;2023-04-06T08:09:51;8.60;99.90
44487;DHT22;30191;50.908;6.962;2023-04-06T08:12:17;8.70;99.90
44487;DHT22;30191;50.908;6.962;2023-04-06T08:14:42;8.80;99.90
44487;DHT22;30191;50.908;6.962;2023-04-06T08:17:08;8.80;99.90
44487;DHT22;30191;50.908;6.962;2023-04-06T08:19:34;8.90;99.90
44487;DHT22;30191;50.908;6.962;2023-04-06T08:21:59;8.90;99.90
44487;DHT22;30191;50.908;6.962;2023-04-06T08:24:25;9.00;99.90
44487;DHT22;30191;50.908;6.962;2023-04-06T08:26:50;9.10;99.90
44487;DHT22;30191;50.908;6.962;2023-04-06T08:29:16;9.20;99.90
44487;DHT22;30191;50.908;6.962;2023-04-06T08:31:42;9.30;99.90
44487;DHT22;30191;50.908;6.962;2023-04-06T08:34:07;9.40;99.90
44487;DHT22;30191;50.908;6.962;2023-04-06T08:36:33;9.40;99.90
44487;DHT22;30191;50.908;6.962;2023-04-06T08:38:59;9.40;99.90
44487;DHT22;30191;50.908;6.962;2023-04-06T08:41:25;9.50;99.90
44487;DHT22;30191;50.908;6.962;2023-04-06T08:43:56;9.60;99.90
44487;DHT22;30191;50.908;6.962;2023-04-06T08:46:22;9.70;99.90
44487;DHT22;30191;50.908;6.962;2023-04-06T08:48:54;9.80;99.90
44487;DHT22;30191;50.908;6.962;2023-04-06T08:51:20;10.00;99.90
44487;DHT22;30191;50.908;6.962;2023-04-06T08:53:46;10.10;99.90
44487;DHT22;30191;50.908;6.962;2023-04-06T08:56:13;10.10;99.90
44487;DHT22;30191;50.908;6.962;2023-04-06T08:58:39;10.20;99.60
44487;DHT22;30191;50.908;6.962;2023-04-06T09:01:07;10.30;99.60
44487;DHT22;30191;50.908;6.962;2023-04-06T09:03:35;10.40;99.60
44487;DHT22;30191;50.908;6.962;2023-04-06T09:06:01;10.50;99.60
44487;DHT22;30191;50.908;6.962;2023-04-06T09:08:29;10.60;99.50
44487;DHT22;30191;50.908;6.962;2023-04-06T09:10:55;10.70;99.50
44487;DHT22;30191;50.908;6.962;2023-04-06T09:13:20;10.80;99.50
44487;DHT22;30191;50.908;6.962;2023-04-06T09:15:46;10.90;99.50
44487;DHT22;30191;50.908;6.962;2023-04-06T09:18:12;11.00;99.50
44487;DHT22;30191;50.908;6.962;2023-04-06T09:20:37;11.10;99.20
44487;DHT22;30191;50.908;6.962;2023-04-06T09:23:03;11.20;99.10
44487;DHT22;30191;50.908;6.962;2023-04-06T09:25:28;11.20;98.70
44487;DHT22;30191;50.908;6.962;2023-04-06T09:28:02;11.30;98.60
44487;DHT22;30191;50.908;6.962;2023-04-06T09:30:28;11.40;98.90
44487;DHT22;30191;50.908;6.962;2023-04-06T09:32:55;11.40;98.50
44487;DHT22;30191;50.908;6.962;2023-04-06T09:35:21;11.50;98.30
44487;DHT22;30191;50.908;6.962;2023-04-06T09:37:47;11.70;98.30
44487;DHT22;30191;50.908;6.962;2023-04-06T09:40:13;11.70;98.50
44487;DHT22;30191;50.908;6.962;2023-04-06T09:42:42;11.80;98.20
44487;DHT22;30191;50.908;6.962;2023-04-06T09:45:08;11.90;98.30
44487;DHT22;30191;50.908;6.962;2023-04-06T09:47:35;11.90;98.30
44487;DHT22;30191;50.908;6.962;2023-04-06T09:50:01;12.00;98.20
44487;DHT22;30191;50.908;6.962;2023-04-06T09:52:30;12.00;98.20
44487;DHT22;30191;50.908;6.962;2023-04-06T09:54:59;12.10;98.10
44487;DHT22;30191;50.908;6.962;2023-04-06T09:57:26;12.20;97.60
44487;DHT22;30191;50.908;6.962;2023-04-06T10:02:41;12.30;97.70
44487;DHT22;30191;50.908;6.962;2023-04-06T10:05:13;12.40;97.50
44487;DHT22;30191;50.908;6.962;2023-04-06T10:07:42;12.50;97.70
44487;DHT22;30191;50.908;6.962;2023-04-06T10:10:08;12.50;97.60
44487;DHT22;30191;50.908;6.962;2023-04-06T10:12:33;12.50;97.90
44487;DHT22;30191;50.908;6.962;2023-04-06T10:14:59;12.60;97.80
44487;DHT22;30191;50.908;6.962;2023-04-06T10:17:25;12.60;97.70
44487;DHT22;30191;50.908;6.962;2023-04-06T10:19:54;12.60;97.60
44487;DHT22;30191;50.908;6.962;2023-04-06T10:22:36;12.60;97.70
44487;DHT22;30191;50.908;6.962;2023-04-06T10:25:04;12.60;97.30
44487;DHT22;30191;50.908;6.962;2023-04-06T10:27:30;12.70;97.20
44487;DHT22;30191;50.908;6.962;2023-04-06T10:30:03;12.80;97.30
44487;DHT22;30191;50.908;6.962;2023-04-06T10:32:35;12.80;97.10
44487;DHT22;30191;50.908;6.962;2023-04-06T10:35:05;13.00;96.90
44487;DHT22;30191;50.908;6.962;2023-04-06T10:37:45;13.00;96.90
44487;DHT22;30191;50.908;6.962;2023-04-06T10:40:24;13.00;96.20
44487;DHT22;30191;50.908;6.962;2023-04-06T10:42:53;13.10;96.00
44487;DHT22;30191;50.908;6.962;2023-04-06T10:45:23;13.20;95.90
44487;DHT22;30191;50.908;6.962;2023-04-06T10:47:49;13.10;96.00
44487;DHT22;30191;50.908;6.962;2023-04-06T10:50:17;13.10;95.40
44487;DHT22;30191;50.908;6.962;2023-04-06T10:52:46;13.20;95.40
44487;DHT22;30191;50.908;6.962;2023-04-06T10:55:12;13.20;94.60
44487;DHT22;30191;50.908;6.962;2023-04-06T10:57:38;13.20;95.00
44487;DHT22;30191;50.908;6.962;2023-04-06T11:00:04;13.20;94.50
44487;DHT22;30191;50.908;6.962;2023-04-06T11:02:30;13.20;94.80
44487;DHT22;30191;50.908;6.962;2023-04-06T11:04:56;13.20;94.50
44487;DHT22;30191;50.908;6.962;2023-04-06T11:07:26;13.20;94.80
44487;DHT22;30191;50.908;6.962;2023-04-06T11:09:52;13.30;94.80
44487;DHT22;30191;50.908;6.962;2023-04-06T11:12:24;13.30;94.90
44487;DHT22;30191;50.908;6.962;2023-04-06T11:17:25;13.30;94.70
44487;DHT22;30191;50.908;6.962;2023-04-06T11:19:50;13.30;94.20
44487;DHT22;30191;50.908;6.962;2023-04-06T11:22:16;13.30;93.40
44487;DHT22;30191;50.908;6.962;2023-04-06T11:24:41;13.20;93.10
44487;DHT22;30191;50.908;6.962;2023-04-06T11:27:07;13.20;93.30
44487;DHT22;30191;50.908;6.962;2023-04-06T11:29:33;13.30;93.30
44487;DHT22;30191;50.908;6.962;2023-04-06T11:32:02;13.30;93.20
44487;DHT22;30191;50.908;6.962;2023-04-06T11:34:29;13.30;92.30
44487;DHT22;30191;50.908;6.962;2023-04-06T11:36:56;13.10;92.60
44487;DHT22;30191;50.908;6.962;2023-04-06T11:39:22;13.30;92.50
44487;DHT22;30191;50.908;6.962;2023-04-06T11:41:49;13.30;92.20
44487;DHT22;30191;50.908;6.962;2023-04-06T11:44:15;13.30;92.90
44487;DHT22;30191;50.908;6.962;2023-04-06T11:46:41;13.40;93.00
44487;DHT22;30191;50.908;6.962;2023-04-06T11:49:06;13.40;93.20
44487;DHT22;30191;50.908;6.962;2023-04-06T11:51:35;13.50;93.40
44487;DHT22;30191;50.908;6.962;2023-04-06T11:54:01;13.60;93.40
44487;DHT22;30191;50.908;6.962;2023-04-06T11:56:27;13.60;92.90
44487;DHT22;30191;50.908;6.962;2023-04-06T11:58:56;13.60;92.80
44487;DHT22;30191;50.908;6.962;2023-04-06T12:01:22;13.60;92.90
44487;DHT22;30191;50.908;6.962;2023-04-06T12:03:48;13.50;93.00
44487;DHT22;30191;50.908;6.962;2023-04-06T12:06:14;13.60;93.20
44487;DHT22;30191;50.908;6.962;2023-04-06T12:08:40;13.60;93.20
44487;DHT22;30191;50.908;6.962;2023-04-06T12:11:05;13.70;93.10
44487;DHT22;30191;50.908;6.962;2023-04-06T12:13:31;13.80;93.20
44487;DHT22;30191;50.908;6.962;2023-04-06T12:15:57;13.90;92.80
44487;DHT22;30191;50.908;6.962;2023-04-06T12:18:22;13.90;92.20
44487;DHT22;30191;50.908;6.962;2023-04-06T12:20:48;14.00;92.10
44487;DHT22;30191;50.908;6.962;2023-04-06T12:23:13;14.10;92.00
44487;DHT22;30191;50.908;6.962;2023-04-06T12:25:39;14.10;92.10
44487;DHT22;30191;50.908;6.962;2023-04-06T12:28:05;14.20;91.40
44487;DHT22;30191;50.908;6.962;2023-04-06T12:30:31;14.20;91.50
44487;DHT22;30191;50.908;6.962;2023-04-06T12:32:57;14.10;91.10
44487;DHT22;30191;50.908;6.962;2023-04-06T12:35:23;14.20;91.50
44487;DHT22;30191;50.908;6.962;2023-04-06T12:37:48;14.10;91.50
44487;DHT22;30191;50.908;6.962;2023-04-06T12:40:14;14.10;91.40
44487;DHT22;30191;50.908;6.962;2023-04-06T12:42:40;14.10;91.70
44487;DHT22;30191;50.908;6.962;2023-04-06T12:45:08;14.10;91.80
44487;DHT22;30191;50.908;6.962;2023-04-06T12:47:34;14.10;91.90
44487;DHT22;30191;50.908;6.962;2023-04-06T12:50:01;14.00;92.00
44487;DHT22;30191;50.908;6.962;2023-04-06T12:52:27;13.90;92.20
44487;DHT22;30191;50.908;6.962;2023-04-06T12:54:55;14.10;92.10
44487;DHT22;30191;50.908;6.962;2023-04-06T12:57:21;14.10;92.20
44487;DHT22;30191;50.908;6.962;2023-04-06T12:59:47;14.20;92.20
44487;DHT22;30191;50.908;6.962;2023-04-06T13:02:12;14.20;92.20
44487;DHT22;30191;50.908;6.962;2023-04-06T13:04:38;14.10;92.70
44487;DHT22;30191;50.908;6.962;2023-04-06T13:07:03;14.00;92.70
44487;DHT22;30191;50.908;6.962;2023-04-06T13:09:29;13.80;93.10
44487;DHT22;30191;50.908;6.962;2023-04-06T13:11:55;13.70;93.60
44487;DHT22;30191;50.908;6.962;2023-04-06T13:14:20;13.50;93.90
44487;DHT22;30191;50.908;6.962;2023-04-06T13:16:46;13.50;94.00
44487;DHT22;30191;50.908;6.962;2023-04-06T13:19:11;13.40;94.70
44487;DHT22;30191;50.908;6.962;2023-04-06T13:21:38;13.40;95.20
44487;DHT22;30191;50.908;6.962;2023-04-06T13:24:04;13.40;95.50
44487;DHT22;30191;50.908;6.962;2023-04-06T13:26:30;13.40;96.10
44487;DHT22;30191;50.908;6.962;2023-04-06T13:28:56;13.30;96.00
44487;DHT22;30191;50.908;6.962;2023-04-06T13:31:22;13.20;96.20
44487;DHT22;30191;50.908;6.962;2023-04-06T13:33:47;13.10;96.40
44487;DHT22;30191;50.908;6.962;2023-04-06T13:36:13;13.10;96.30
44487;DHT22;30191;50.908;6.962;2023-04-06T13:38:38;13.00;96.00
44487;DHT22;30191;50.908;6.962;2023-04-06T13:41:04;12.90;96.10
44487;DHT22;30191;50.908;6.962;2023-04-06T13:43:30;12.80;96.40
44487;DHT22;30191;50.908;6.962;2023-04-06T13:45:56;12.80;96.90
44487;DHT22;30191;50.908;6.962;2023-04-06T13:48:23;12.60;97.30
44487;DHT22;30191;50.908;6.962;2023-04-06T13:50:50;12.50;97.60
44487;DHT22;30191;50.908;6.962;2023-04-06T13:53:16;12.40;98.00
44487;DHT22;30191;50.908;6.962;2023-04-06T13:55:41;12.20;98.80
44487;DHT22;30191;50.908;6.962;2023-04-06T13:58:07;12.20;98.80
44487;DHT22;30191;50.908;6.962;2023-04-06T14:00:32;12.10;99.20
44487;DHT22;30191;50.908;6.962;2023-04-06T14:02:58;11.90;99.70
44487;DHT22;30191;50.908;6.962;2023-04-06T14:05:23;11.90;99.90
44487;DHT22;30191;50.908;6.962;2023-04-06T14:07:49;12.00;99.90
44487;DHT22;30191;50.908;6.962;2023-04-06T14:10:15;12.00;99.90
44487;DHT22;30191;50.908;6.962;2023-04-06T14:12:41;12.00;99.90
44487;DHT22;30191;50.908;6.962;2023-04-06T14:15:08;12.20;99.90
44487;DHT22;30191;50.908;6.962;2023-04-06T14:17:33;12.20;99.90
44487;DHT22;30191;50.908;6.962;2023-04-06T14:19:59;12.20;99.90
44487;DHT22;30191;50.908;6.962;2023-04-06T14:22:25;12.10;99.90
44487;DHT22;30191;50.908;6.962;2023-04-06T14:24:51;12.10;99.90
44487;DHT22;30191;50.908;6.962;2023-04-06T14:27:16;12.10;99.90
44487;DHT22;30191;50.908;6.962;2023-04-06T14:29:42;12.10;99.90
44487;DHT22;30191;50.908;6.962;2023-04-06T14:32:07;12.20;99.90
44487;DHT22;30191;50.908;6.962;2023-04-06T14:34:33;12.20;99.90
44487;DHT22;30191;50.908;6.962;2023-04-06T14:36:58;12.30;99.90
44487;DHT22;30191;50.908;6.962;2023-04-06T14:39:24;12.20;99.90
44487;DHT22;30191;50.908;6.962;2023-04-06T14:41:50;12.20;99.90
44487;DHT22;30191;50.908;6.962;2023-04-06T14:44:16;12.30;99.90
44487;DHT22;30191;50.908;6.962;2023-04-06T14:46:42;12.40;99.90
44487;DHT22;30191;50.908;6.962;2023-04-06T14:49:07;12.40;99.90
44487;DHT22;30191;50.908;6.962;2023-04-06T14:51:33;12.30;99.90
44487;DHT22;30191;50.908;6.962;2023-04-06T14:54:00;12.30;99.90
44487;DHT22;30191;50.908;6.962;2023-04-06T14:56:25;12.20;99.90
44487;DHT22;30191;50.908;6.962;2023-04-06T14:58:51;12.00;99.90
44487;DHT22;30191;50.908;6.962;2023-04-06T15:01:17;12.00;99.90
44487;DHT22;30191;50.908;6.962;2023-04-06T15:03:43;11.90;99.90
44487;DHT22;30191;50.908;6.962;2023-04-06T15:06:11;11.80;99.90
44487;DHT22;30191;50.908;6.962;2023-04-06T15:08:38;11.70;99.90
44487;DHT22;30191;50.908;6.962;2023-04-06T15:11:04;11.60;99.90
44487;DHT22;30191;50.908;6.962;2023-04-06T15:13:29;11.60;99.90
44487;DHT22;30191;50.908;6.962;2023-04-06T15:15:55;11.50;99.90
44487;DHT22;30191;50.908;6.962;2023-04-06T15:18:20;11.40;99.90
44487;DHT22;30191;50.908;6.962;2023-04-06T15:20:46;11.30;99.90
44487;DHT22;30191;50.908;6.962;2023-04-06T15:23:11;11.30;99.90
44487;DHT22;30191;50.908;6.962;2023-04-06T15:25:38;11.30;99.90
44487;DHT22;30191;50.908;6.962;2023-04-06T15:28:06;11.20;99.90
44487;DHT22;30191;50.908;6.962;2023-04-06T15:30:32;11.10;99.90
44487;DHT22;30191;50.908;6.962;2023-04-06T15:32:58;11.10;99.90
44487;DHT22;30191;50.908;6.962;2023-04-06T15:35:26;11.00;99.90
44487;DHT22;30191;50.908;6.962;2023-04-06T15:37:54;11.00;99.90